sensor_id;sensor_type;location;lat;lon;timestamp;temperature;humidity
7472;DHT22;3777;48.722;8.110;2023-05-21T00:01:14;17.40;99.90
7472;DHT22;3777;48.722;8.110;2023-05-21T00:03:41;17.40;99.90
7472;DHT22;3777;48.722;8.110;2023-05-21T00:06:10;17.40;99.90
7472;DHT22;3777;48.722;8.110;2023-05-21T00:08:38;17.30;99.90
7472;DHT22;3777;48.722;8.110;2023-05-21T00:11:05;17.30;99.90
7472;DHT22;3777;48.722;8.110;2023-05-21T00:13:33;17.30;99.90
7472;DHT22;3777;48.722;8.110;2023-05-21T00:16:00;17.30;99.90
7472;DHT22;3777;48.722;8.110;2023-05-21T00:18:27;17.30;99.90
7472;DHT22;3777;48.722;8.110;2023-05-21T00:20:56;17.30;99.90
7472;DHT22;3777;48.722;8.110;2023-05-21T00:23:23;17.20;99.90
7472;DHT22;3777;48.722;8.110;2023-05-21T00:25:51;17.20;99.90
7472;DHT22;3777;48.722;8.110;2023-05-21T00:28:18;17.20;99.90
7472;DHT22;3777;48.722;8.110;2023-05-21T00:30:46;17.20;99.90
7472;DHT22;3777;48.722;8.110;2023-05-21T00:33:13;17.10;99.90
7472;DHT22;3777;48.722;8.110;2023-05-21T00:35:40;17.20;99.90
7472;DHT22;3777;48.722;8.110;2023-05-21T00:38:07;17.10;99.90
7472;DHT22;3777;48.722;8.110;2023-05-21T00:40:34;17.10;99.90
7472;DHT22;3777;48.722;8.110;2023-05-21T00:43:01;17.10;99.90
7472;DHT22;3777;48.722;8.110;2023-05-21T00:45:28;17.10;99.90
7472;DHT22;3777;48.722;8.110;2023-05-21T00:47:56;17.00;99.90
7472;DHT22;3777;48.722;8.110;2023-05-21T00:50:23;16.90;99.90
7472;DHT22;3777;48.722;8.110;2023-05-21T00:52:50;16.80;99.90
7472;DHT22;3777;48.722;8.110;2023-05-21T00:55:18;16.80;99.90
7472;DHT22;3777;48.722;8.110;2023-05-21T00:57:45;16.80;99.90
7472;DHT22;3777;48.722;8.110;2023-05-21T01:00:13;16.80;99.90
7472;DHT22;3777;48.722;8.110;2023-05-21T01:02:41;16.80;99.90
7472;DHT22;3777;48.722;8.110;2023-05-21T01:05:10;16.70;99.90
7472;DHT22;3777;48.722;8.110;2023-05-21T01:07:38;16.70;99.90
7472;DHT22;3777;48.722;8.110;2023-05-21T01:10:08;16.70;99.90
7472;DHT22;3777;48.722;8.110;2023-05-21T01:12:37;16.60;99.90
7472;DHT22;3777;48.722;8.110;2023-05-21T01:15:06;16.60;99.90
7472;DHT22;3777;48.722;8.110;2023-05-21T01:17:33;16.50;99.90
7472;DHT22;3777;48.722;8.110;2023-05-21T01:20:01;16.50;99.90
7472;DHT22;3777;48.722;8.110;2023-05-21T01:22:36;16.50;99.90
7472;DHT22;3777;48.722;8.110;2023-05-21T01:25:06;16.50;99.90
7472;DHT22;3777;48.722;8.110;2023-05-21T01:27:33;16.40;99.90
7472;DHT22;3777;48.722;8.110;2023-05-21T01:30:00;16.50;99.90
7472;DHT22;3777;48.722;8.110;2023-05-21T01:32:33;16.50;99.90
7472;DHT22;3777;48.722;8.110;2023-05-21T01:35:04;16.40;99.90
7472;DHT22;3777;48.722;8.110;2023-05-21T01:37:36;16.40;99.90
7472;DHT22;3777;48.722;8.110;2023-05-21T01:40:11;16.40;99.90
7472;DHT22;3777;48.722;8.110;2023-05-21T01:42:42;16.40;99.90
7472;DHT22;3777;48.722;8.110;2023-05-21T01:45:10;16.30;99.90
7472;DHT22;3777;48.722;8.110;2023-05-21T01:47:40;16.30;99.90
7472;DHT22;3777;48.722;8.110;2023-05-21T01:50:08;16.30;99.90
7472;DHT22;3777;48.722;8.110;2023-05-21T01:52:36;16.40;99.90
7472;DHT22;3777;48.722;8.110;2023-05-21T01:55:03;16.40;99.90
7472;DHT22;3777;48.722;8.110;2023-05-21T01:57:32;16.40;99.90
7472;DHT22;3777;48.722;8.110;2023-05-21T01:59:59;16.40;99.90
7472;DHT22;3777;48.722;8.110;2023-05-21T02:02:26;16.40;99.90
7472;DHT22;3777;48.722;8.110;2023-05-21T02:04:53;16.30;99.90
7472;DHT22;3777;48.722;8.110;2023-05-21T02:07:20;16.30;99.90
7472;DHT22;3777;48.722;8.110;2023-05-21T02:09:49;16.30;99.90
7472;DHT22;3777;48.722;8.110;2023-05-21T02:12:16;16.30;99.90
7472;DHT22;3777;48.722;8.110;2023-05-21T02:14:44;16.30;99.90
7472;DHT22;3777;48.722;8.110;2023-05-21T02:17:14;16.30;99.90
7472;DHT22;3777;48.722;8.110;2023-05-21T02:19:42;16.30;99.90
7472;DHT22;3777;48.722;8.110;2023-05-21T02:22:09;16.30;99.90
7472;DHT22;3777;48.722;8.110;2023-05-21T02:24:36;16.30;99.90
7472;DHT22;3777;48.722;8.110;2023-05-21T02:27:03;16.30;99.90
7472;DHT22;3777;48.722;8.110;2023-05-21T02:29:30;16.30;99.90
7472;DHT22;3777;48.722;8.110;2023-05-21T02:31:59;16.30;99.90
7472;DHT22;3777;48.722;8.110;2023-05-21T02:34:26;16.20;99.90
7472;DHT22;3777;48.722;8.110;2023-05-21T02:36:55;16.20;99.90
7472;DHT22;3777;48.722;8.110;2023-05-21T02:39:23;16.20;99.90
7472;DHT22;3777;48.722;8.110;2023-05-21T02:41:50;16.20;99.90
7472;DHT22;3777;48.722;8.110;2023-05-21T02:44:17;16.20;99.90
7472;DHT22;3777;48.722;8.110;2023-05-21T02:46:45;16.20;99.90
7472;DHT22;3777;48.722;8.110;2023-05-21T02:49:13;16.20;99.90
7472;DHT22;3777;48.722;8.110;2023-05-21T02:51:40;16.10;99.90
7472;DHT22;3777;48.722;8.110;2023-05-21T02:54:07;16.10;99.90
7472;DHT22;3777;48.722;8.110;2023-05-21T02:56:34;16.10;99.90
7472;DHT22;3777;48.722;8.110;2023-05-21T02:59:01;16.10;99.90
7472;DHT22;3777;48.722;8.110;2023-05-21T03:01:28;16.10;99.90
7472;DHT22;3777;48.722;8.110;2023-05-21T03:03:55;16.00;99.90
7472;DHT22;3777;48.722;8.110;2023-05-21T03:06:23;16.00;99.90
7472;DHT22;3777;48.722;8.110;2023-05-21T03:08:50;16.00;99.90
7472;DHT22;3777;48.722;8.110;2023-05-21T03:11:17;16.00;99.90
7472;DHT22;3777;48.722;8.110;2023-05-21T03:13:44;16.00;99.90
7472;DHT22;3777;48.722;8.110;2023-05-21T03:16:11;15.90;99.90
7472;DHT22;3777;48.722;8.110;2023-05-21T03:18:38;15.90;99.90
7472;DHT22;3777;48.722;8.110;2023-05-21T03:21:05;15.90;99.90
7472;DHT22;3777;48.722;8.110;2023-05-21T03:23:34;15.90;99.90
7472;DHT22;3777;48.722;8.110;2023-05-21T03:26:01;15.90;99.90
7472;DHT22;3777;48.722;8.110;2023-05-21T03:28:27;15.90;99.90
7472;DHT22;3777;48.722;8.110;2023-05-21T03:30:54;15.90;99.90
7472;DHT22;3777;48.722;8.110;2023-05-21T03:33:22;15.90;99.90
7472;DHT22;3777;48.722;8.110;2023-05-21T03:35:48;15.80;99.90
7472;DHT22;3777;48.722;8.110;2023-05-21T03:38:15;15.80;99.90
7472;DHT22;3777;48.722;8.110;2023-05-21T03:40:44;15.80;99.90
7472;DHT22;3777;48.722;8.110;2023-05-21T03:43:11;15.80;99.90
7472;DHT22;3777;48.722;8.110;2023-05-21T03:45:38;15.80;99.90
7472;DHT22;3777;48.722;8.110;2023-05-21T03:48:05;15.80;99.90
7472;DHT22;3777;48.722;8.110;2023-05-21T03:50:32;15.70;99.90
7472;DHT22;3777;48.722;8.110;2023-05-21T03:52:59;15.80;99.90
7472;DHT22;3777;48.722;8.110;2023-05-21T03:55:26;15.80;99.90
7472;DHT22;3777;48.722;8.110;2023-05-21T03:57:55;15.80;99.90
7472;DHT22;3777;48.722;8.110;2023-05-21T04:00:22;15.80;99.90
7472;DHT22;3777;48.722;8.110;2023-05-21T04:02:49;15.80;99.90
7472;DHT22;3777;48.722;8.110;2023-05-21T04:05:16;15.80;99.90
7472;DHT22;3777;48.722;8.110;2023-05-21T04:07:43;15.80;99.90
7472;DHT22;3777;48.722;8.110;2023-05-21T04:10:10;15.80;99.90
7472;DHT22;3777;48.722;8.110;2023-05-21T04:12:37;15.80;99.90
7472;DHT22;3777;48.722;8.110;2023-05-21T04:15:07;15.90;99.90
7472;DHT22;3777;48.722;8.110;2023-05-21T04:17:34;15.90;99.90
7472;DHT22;3777;48.722;8.110;2023-05-21T04:20:01;15.90;99.90
7472;DHT22;3777;48.722;8.110;2023-05-21T04:22:29;15.90;99.90
7472;DHT22;3777;48.722;8.110;2023-05-21T04:24:56;15.90;99.90
7472;DHT22;3777;48.722;8.110;2023-05-21T04:27:24;15.90;99.90
7472;DHT22;3777;48.722;8.110;2023-05-21T04:29:51;16.00;99.90
7472;DHT22;3777;48.722;8.110;2023-05-21T04:32:20;16.00;99.90
7472;DHT22;3777;48.722;8.110;2023-05-21T04:34:47;16.10;99.90
7472;DHT22;3777;48.722;8.110;2023-05-21T04:37:14;16.10;99.90
7472;DHT22;3777;48.722;8.110;2023-05-21T04:39:42;16.20;99.90
7472;DHT22;3777;48.722;8.110;2023-05-21T04:42:09;16.20;99.90
7472;DHT22;3777;48.722;8.110;2023-05-21T04:44:36;16.30;99.90
7472;DHT22;3777;48.722;8.110;2023-05-21T04:47:04;16.30;99.90
7472;DHT22;3777;48.722;8.110;2023-05-21T04:49:33;16.40;99.90
7472;DHT22;3777;48.722;8.110;2023-05-21T04:52:00;16.40;99.90
7472;DHT22;3777;48.722;8.110;2023-05-21T04:54:27;16.40;99.90
7472;DHT22;3777;48.722;8.110;2023-05-21T04:56:54;16.50;99.90
7472;DHT22;3777;48.722;8.110;2023-05-21T04:59:22;16.50;99.90
7472;DHT22;3777;48.722;8.110;2023-05-21T05:01:49;16.60;99.90
7472;DHT22;3777;48.722;8.110;2023-05-21T05:04:16;16.70;99.90
7472;DHT22;3777;48.722;8.110;2023-05-21T05:06:44;16.70;99.90
7472;DHT22;3777;48.722;8.110;2023-05-21T05:09:11;16.80;99.90
7472;DHT22;3777;48.722;8.110;2023-05-21T05:11:38;16.80;99.90
7472;DHT22;3777;48.722;8.110;2023-05-21T05:14:06;16.80;99.90
7472;DHT22;3777;48.722;8.110;2023-05-21T05:16:33;16.90;99.90
7472;DHT22;3777;48.722;8.110;2023-05-21T05:19:00;16.90;99.90
7472;DHT22;3777;48.722;8.110;2023-05-21T05:21:27;16.90;99.90
7472;DHT22;3777;48.722;8.110;2023-05-21T05:23:55;16.90;99.90
7472;DHT22;3777;48.722;8.110;2023-05-21T05:26:22;17.00;99.90
7472;DHT22;3777;48.722;8.110;2023-05-21T05:28:49;16.90;99.90
7472;DHT22;3777;48.722;8.110;2023-05-21T05:31:16;16.90;99.90
7472;DHT22;3777;48.722;8.110;2023-05-21T05:33:43;17.00;99.90
7472;DHT22;3777;48.722;8.110;2023-05-21T05:36:10;17.00;99.90
7472;DHT22;3777;48.722;8.110;2023-05-21T05:38:37;17.00;99.90
7472;DHT22;3777;48.722;8.110;2023-05-21T05:41:06;17.10;99.90
7472;DHT22;3777;48.722;8.110;2023-05-21T05:43:32;17.10;99.90
7472;DHT22;3777;48.722;8.110;2023-05-21T05:45:59;17.20;99.90
7472;DHT22;3777;48.722;8.110;2023-05-21T05:48:26;17.20;99.90
7472;DHT22;3777;48.722;8.110;2023-05-21T05:50:53;17.30;99.90
7472;DHT22;3777;48.722;8.110;2023-05-21T05:53:21;17.40;99.90
7472;DHT22;3777;48.722;8.110;2023-05-21T05:55:48;17.50;99.90
7472;DHT22;3777;48.722;8.110;2023-05-21T05:58:17;17.60;99.90
7472;DHT22;3777;48.722;8.110;2023-05-21T06:00:44;17.70;99.90
7472;DHT22;3777;48.722;8.110;2023-05-21T06:03:11;17.80;99.90
7472;DHT22;3777;48.722;8.110;2023-05-21T06:05:38;17.80;99.90
7472;DHT22;3777;48.722;8.110;2023-05-21T06:08:05;18.00;99.90
7472;DHT22;3777;48.722;8.110;2023-05-21T06:10:32;18.00;99.90
7472;DHT22;3777;48.722;8.110;2023-05-21T06:12:59;18.10;99.90
7472;DHT22;3777;48.722;8.110;2023-05-21T06:15:27;18.10;99.90
7472;DHT22;3777;48.722;8.110;2023-05-21T06:17:54;18.10;99.90
7472;DHT22;3777;48.722;8.110;2023-05-21T06:20:21;18.10;99.90
7472;DHT22;3777;48.722;8.110;2023-05-21T06:22:48;18.10;99.90
7472;DHT22;3777;48.722;8.110;2023-05-21T06:25:15;18.00;99.90
7472;DHT22;3777;48.722;8.110;2023-05-21T06:27:42;18.10;99.90
7472;DHT22;3777;48.722;8.110;2023-05-21T06:30:10;18.00;99.90
7472;DHT22;3777;48.722;8.110;2023-05-21T06:32:42;18.10;99.90
7472;DHT22;3777;48.722;8.110;2023-05-21T06:35:09;18.20;99.90
7472;DHT22;3777;48.722;8.110;2023-05-21T06:37:36;18.40;99.90
7472;DHT22;3777;48.722;8.110;2023-05-21T06:40:03;18.60;99.90
7472;DHT22;3777;48.722;8.110;2023-05-21T06:42:31;19.10;99.90
7472;DHT22;3777;48.722;8.110;2023-05-21T06:44:58;19.40;99.90
7472;DHT22;3777;48.722;8.110;2023-05-21T06:47:25;19.80;99.90
7472;DHT22;3777;48.722;8.110;2023-05-21T06:49:53;20.20;99.90
7472;DHT22;3777;48.722;8.110;2023-05-21T06:52:20;20.70;99.90
7472;DHT22;3777;48.722;8.110;2023-05-21T06:54:47;21.20;99.90
7472;DHT22;3777;48.722;8.110;2023-05-21T06:57:15;21.60;99.90
7472;DHT22;3777;48.722;8.110;2023-05-21T06:59:42;21.90;99.90
7472;DHT22;3777;48.722;8.110;2023-05-21T07:02:09;22.10;99.90
7472;DHT22;3777;48.722;8.110;2023-05-21T07:04:36;22.30;99.90
7472;DHT22;3777;48.722;8.110;2023-05-21T07:07:04;22.30;99.90
7472;DHT22;3777;48.722;8.110;2023-05-21T07:09:31;22.30;99.90
7472;DHT22;3777;48.722;8.110;2023-05-21T07:11:58;22.30;99.90
7472;DHT22;3777;48.722;8.110;2023-05-21T07:14:25;22.20;99.90
7472;DHT22;3777;48.722;8.110;2023-05-21T07:16:52;22.10;99.90
7472;DHT22;3777;48.722;8.110;2023-05-21T07:19:19;22.10;99.90
7472;DHT22;3777;48.722;8.110;2023-05-21T07:21:47;22.10;99.90
7472;DHT22;3777;48.722;8.110;2023-05-21T07:24:16;22.00;99.90
7472;DHT22;3777;48.722;8.110;2023-05-21T07:26:43;21.70;99.90
7472;DHT22;3777;48.722;8.110;2023-05-21T07:29:10;21.50;99.90
7472;DHT22;3777;48.722;8.110;2023-05-21T07:31:37;21.40;99.90
7472;DHT22;3777;48.722;8.110;2023-05-21T07:34:04;21.30;99.90
7472;DHT22;3777;48.722;8.110;2023-05-21T07:36:31;21.20;99.90
7472;DHT22;3777;48.722;8.110;2023-05-21T07:38:58;21.20;99.90
7472;DHT22;3777;48.722;8.110;2023-05-21T07:41:27;21.20;99.90
7472;DHT22;3777;48.722;8.110;2023-05-21T07:43:54;21.20;99.90
7472;DHT22;3777;48.722;8.110;2023-05-21T07:46:21;21.10;99.90
7472;DHT22;3777;48.722;8.110;2023-05-21T07:48:48;21.00;99.90
7472;DHT22;3777;48.722;8.110;2023-05-21T07:51:15;21.00;99.90
7472;DHT22;3777;48.722;8.110;2023-05-21T07:53:42;21.20;99.90
7472;DHT22;3777;48.722;8.110;2023-05-21T07:56:09;21.30;99.90
7472;DHT22;3777;48.722;8.110;2023-05-21T07:58:38;21.40;99.90
7472;DHT22;3777;48.722;8.110;2023-05-21T08:01:05;21.50;99.90
7472;DHT22;3777;48.722;8.110;2023-05-21T08:03:32;21.60;99.90
7472;DHT22;3777;48.722;8.110;2023-05-21T08:05:59;21.80;99.90
7472;DHT22;3777;48.722;8.110;2023-05-21T08:08:26;22.10;99.90
7472;DHT22;3777;48.722;8.110;2023-05-21T08:10:53;22.40;99.90
7472;DHT22;3777;48.722;8.110;2023-05-21T08:13:20;22.50;99.90
7472;DHT22;3777;48.722;8.110;2023-05-21T08:15:49;22.80;99.90
7472;DHT22;3777;48.722;8.110;2023-05-21T08:18:16;23.30;99.90
7472;DHT22;3777;48.722;8.110;2023-05-21T08:20:43;23.90;99.90
7472;DHT22;3777;48.722;8.110;2023-05-21T08:23:10;24.40;99.90
7472;DHT22;3777;48.722;8.110;2023-05-21T08:25:37;25.00;99.90
7472;DHT22;3777;48.722;8.110;2023-05-21T08:28:04;25.60;99.90
7472;DHT22;3777;48.722;8.110;2023-05-21T08:30:31;25.70;99.90
7472;DHT22;3777;48.722;8.110;2023-05-21T08:32:59;25.70;99.90
7472;DHT22;3777;48.722;8.110;2023-05-21T08:35:26;25.90;99.90
7472;DHT22;3777;48.722;8.110;2023-05-21T08:37:53;26.60;99.90
7472;DHT22;3777;48.722;8.110;2023-05-21T08:40:20;27.50;99.90
7472;DHT22;3777;48.722;8.110;2023-05-21T08:42:48;27.90;99.90
7472;DHT22;3777;48.722;8.110;2023-05-21T08:45:19;28.00;99.90
7472;DHT22;3777;48.722;8.110;2023-05-21T08:47:47;28.30;99.90
7472;DHT22;3777;48.722;8.110;2023-05-21T08:50:16;28.30;99.90
7472;DHT22;3777;48.722;8.110;2023-05-21T08:52:44;28.50;99.90
7472;DHT22;3777;48.722;8.110;2023-05-21T08:55:12;28.70;99.90
7472;DHT22;3777;48.722;8.110;2023-05-21T08:57:42;28.80;99.90
7472;DHT22;3777;48.722;8.110;2023-05-21T09:00:10;28.70;99.90
7472;DHT22;3777;48.722;8.110;2023-05-21T09:02:38;28.40;99.90
7472;DHT22;3777;48.722;8.110;2023-05-21T09:05:08;28.20;99.90
7472;DHT22;3777;48.722;8.110;2023-05-21T09:07:41;28.00;99.90
7472;DHT22;3777;48.722;8.110;2023-05-21T09:10:12;27.60;99.90
7472;DHT22;3777;48.722;8.110;2023-05-21T09:12:39;27.50;99.90
7472;DHT22;3777;48.722;8.110;2023-05-21T09:15:07;27.50;99.90
7472;DHT22;3777;48.722;8.110;2023-05-21T09:17:34;27.30;99.90
7472;DHT22;3777;48.722;8.110;2023-05-21T09:20:09;27.00;99.90
7472;DHT22;3777;48.722;8.110;2023-05-21T09:22:41;26.90;99.90
7472;DHT22;3777;48.722;8.110;2023-05-21T09:25:09;27.20;99.90
7472;DHT22;3777;48.722;8.110;2023-05-21T09:27:36;27.90;99.90
7472;DHT22;3777;48.722;8.110;2023-05-21T09:30:09;28.90;99.90
7472;DHT22;3777;48.722;8.110;2023-05-21T09:32:36;29.80;99.90
7472;DHT22;3777;48.722;8.110;2023-05-21T09:35:08;30.60;99.90
7472;DHT22;3777;48.722;8.110;2023-05-21T09:37:39;31.10;99.80
7472;DHT22;3777;48.722;8.110;2023-05-21T09:40:12;31.40;98.80
7472;DHT22;3777;48.722;8.110;2023-05-21T09:42:40;31.30;97.20
7472;DHT22;3777;48.722;8.110;2023-05-21T09:45:08;31.70;96.80
7472;DHT22;3777;48.722;8.110;2023-05-21T09:47:40;32.20;96.10
7472;DHT22;3777;48.722;8.110;2023-05-21T09:50:09;33.50;94.20
7472;DHT22;3777;48.722;8.110;2023-05-21T09:52:36;33.40;91.30
7472;DHT22;3777;48.722;8.110;2023-05-21T09:55:05;33.30;90.50
7472;DHT22;3777;48.722;8.110;2023-05-21T09:57:39;32.90;92.60
7472;DHT22;3777;48.722;8.110;2023-05-21T10:00:08;32.90;90.20
7472;DHT22;3777;48.722;8.110;2023-05-21T10:02:41;32.30;90.70
7472;DHT22;3777;48.722;8.110;2023-05-21T10:05:11;32.30;90.30
7472;DHT22;3777;48.722;8.110;2023-05-21T10:07:40;32.30;88.80
7472;DHT22;3777;48.722;8.110;2023-05-21T10:10:12;32.20;89.40
7472;DHT22;3777;48.722;8.110;2023-05-21T10:12:42;32.00;90.00
7472;DHT22;3777;48.722;8.110;2023-05-21T10:15:14;31.80;90.10
7472;DHT22;3777;48.722;8.110;2023-05-21T10:17:42;32.10;90.20
7472;DHT22;3777;48.722;8.110;2023-05-21T10:20:10;32.10;88.90
7472;DHT22;3777;48.722;8.110;2023-05-21T10:22:37;32.50;89.20
7472;DHT22;3777;48.722;8.110;2023-05-21T10:25:06;32.90;87.30
7472;DHT22;3777;48.722;8.110;2023-05-21T10:27:35;33.60;82.80
7472;DHT22;3777;48.722;8.110;2023-05-21T10:30:03;34.80;79.70
7472;DHT22;3777;48.722;8.110;2023-05-21T10:32:31;35.20;75.70
7472;DHT22;3777;48.722;8.110;2023-05-21T10:34:59;35.50;72.10
7472;DHT22;3777;48.722;8.110;2023-05-21T10:37:27;36.20;71.70
7472;DHT22;3777;48.722;8.110;2023-05-21T10:39:54;36.20;69.30
7472;DHT22;3777;48.722;8.110;2023-05-21T10:42:39;36.50;67.30
7472;DHT22;3777;48.722;8.110;2023-05-21T10:45:18;36.70;64.90
7472;DHT22;3777;48.722;8.110;2023-05-21T10:48:04;36.90;62.80
7472;DHT22;3777;48.722;8.110;2023-05-21T10:50:57;36.50;61.70
7472;DHT22;3777;48.722;8.110;2023-05-21T10:53:40;36.50;63.40
7472;DHT22;3777;48.722;8.110;2023-05-21T10:56:16;37.30;61.40
7472;DHT22;3777;48.722;8.110;2023-05-21T10:59:02;37.60;58.70
7472;DHT22;3777;48.722;8.110;2023-05-21T11:01:35;37.00;57.70
7472;DHT22;3777;48.722;8.110;2023-05-21T11:04:03;35.70;59.60
7472;DHT22;3777;48.722;8.110;2023-05-21T11:06:30;34.70;62.50
7472;DHT22;3777;48.722;8.110;2023-05-21T11:09:11;33.30;65.70
7472;DHT22;3777;48.722;8.110;2023-05-21T11:11:42;31.90;69.50
7472;DHT22;3777;48.722;8.110;2023-05-21T11:14:30;30.40;73.00
7472;DHT22;3777;48.722;8.110;2023-05-21T11:17:01;29.80;76.60
7472;DHT22;3777;48.722;8.110;2023-05-21T11:19:36;29.40;79.80
7472;DHT22;3777;48.722;8.110;2023-05-21T11:22:08;29.10;82.70
7472;DHT22;3777;48.722;8.110;2023-05-21T11:24:40;28.70;83.90
7472;DHT22;3777;48.722;8.110;2023-05-21T11:27:08;28.60;86.00
7472;DHT22;3777;48.722;8.110;2023-05-21T11:29:45;28.30;89.00
7472;DHT22;3777;48.722;8.110;2023-05-21T11:32:14;28.10;88.40
7472;DHT22;3777;48.722;8.110;2023-05-21T11:34:42;27.90;90.20
7472;DHT22;3777;48.722;8.110;2023-05-21T11:37:37;27.90;90.80
7472;DHT22;3777;48.722;8.110;2023-05-21T11:40:19;27.50;91.00
7472;DHT22;3777;48.722;8.110;2023-05-21T11:42:50;27.40;92.50
7472;DHT22;3777;48.722;8.110;2023-05-21T11:45:18;27.20;92.70
7472;DHT22;3777;48.722;8.110;2023-05-21T11:47:47;27.20;93.90
7472;DHT22;3777;48.722;8.110;2023-05-21T11:50:15;27.20;93.90
7472;DHT22;3777;48.722;8.110;2023-05-21T11:52:42;27.20;93.80
7472;DHT22;3777;48.722;8.110;2023-05-21T11:55:10;27.10;94.20
7472;DHT22;3777;48.722;8.110;2023-05-21T11:57:39;27.10;94.70
7472;DHT22;3777;48.722;8.110;2023-05-21T12:00:12;27.10;94.80
7472;DHT22;3777;48.722;8.110;2023-05-21T12:02:44;27.10;95.60
7472;DHT22;3777;48.722;8.110;2023-05-21T12:05:13;27.10;96.00
7472;DHT22;3777;48.722;8.110;2023-05-21T12:07:40;27.10;95.70
7472;DHT22;3777;48.722;8.110;2023-05-21T12:10:08;26.90;95.80
7472;DHT22;3777;48.722;8.110;2023-05-21T12:12:35;26.90;96.60
7472;DHT22;3777;48.722;8.110;2023-05-21T12:15:02;27.00;96.80
7472;DHT22;3777;48.722;8.110;2023-05-21T12:17:30;27.10;97.50
7472;DHT22;3777;48.722;8.110;2023-05-21T12:19:57;27.20;96.50
7472;DHT22;3777;48.722;8.110;2023-05-21T12:22:27;27.30;96.30
7472;DHT22;3777;48.722;8.110;2023-05-21T12:24:54;27.40;96.30
7472;DHT22;3777;48.722;8.110;2023-05-21T12:27:22;27.30;95.00
7472;DHT22;3777;48.722;8.110;2023-05-21T12:29:50;27.20;95.50
7472;DHT22;3777;48.722;8.110;2023-05-21T12:32:19;27.00;95.10
7472;DHT22;3777;48.722;8.110;2023-05-21T12:34:47;27.10;95.20
7472;DHT22;3777;48.722;8.110;2023-05-21T12:37:15;27.00;95.70
7472;DHT22;3777;48.722;8.110;2023-05-21T12:39:46;27.00;95.50
7472;DHT22;3777;48.722;8.110;2023-05-21T12:42:13;27.00;95.70
7472;DHT22;3777;48.722;8.110;2023-05-21T12:44:43;26.90;95.50
7472;DHT22;3777;48.722;8.110;2023-05-21T12:47:11;26.90;96.00
7472;DHT22;3777;48.722;8.110;2023-05-21T12:49:39;27.00;95.60
7472;DHT22;3777;48.722;8.110;2023-05-21T12:52:10;27.20;94.80
7472;DHT22;3777;48.722;8.110;2023-05-21T12:54:40;27.10;94.50
7472;DHT22;3777;48.722;8.110;2023-05-21T12:57:14;27.20;95.20
7472;DHT22;3777;48.722;8.110;2023-05-21T12:59:47;27.00;93.90
7472;DHT22;3777;48.722;8.110;2023-05-21T13:02:21;27.00;94.80
7472;DHT22;3777;48.722;8.110;2023-05-21T13:04:53;27.10;94.90
7472;DHT22;3777;48.722;8.110;2023-05-21T13:07:20;27.10;94.30
7472;DHT22;3777;48.722;8.110;2023-05-21T13:09:47;27.20;94.00
7472;DHT22;3777;48.722;8.110;2023-05-21T13:12:19;27.20;93.60
7472;DHT22;3777;48.722;8.110;2023-05-21T13:14:47;27.20;94.40
7472;DHT22;3777;48.722;8.110;2023-05-21T13:17:14;27.30;92.70
7472;DHT22;3777;48.722;8.110;2023-05-21T13:19:43;27.30;93.60
7472;DHT22;3777;48.722;8.110;2023-05-21T13:22:10;27.40;94.20
7472;DHT22;3777;48.722;8.110;2023-05-21T13:24:37;27.40;95.00
7472;DHT22;3777;48.722;8.110;2023-05-21T13:27:04;27.20;95.40
7472;DHT22;3777;48.722;8.110;2023-05-21T13:29:33;27.10;95.80
7472;DHT22;3777;48.722;8.110;2023-05-21T13:32:02;27.20;96.30
7472;DHT22;3777;48.722;8.110;2023-05-21T13:34:32;27.10;95.50
7472;DHT22;3777;48.722;8.110;2023-05-21T13:36:59;27.20;96.10
7472;DHT22;3777;48.722;8.110;2023-05-21T13:39:26;27.30;95.80
7472;DHT22;3777;48.722;8.110;2023-05-21T13:41:53;27.30;96.10
7472;DHT22;3777;48.722;8.110;2023-05-21T13:44:20;27.20;96.00
7472;DHT22;3777;48.722;8.110;2023-05-21T13:46:48;27.10;96.40
7472;DHT22;3777;48.722;8.110;2023-05-21T13:49:15;27.00;96.80
7472;DHT22;3777;48.722;8.110;2023-05-21T13:51:42;27.10;96.80
7472;DHT22;3777;48.722;8.110;2023-05-21T13:54:09;27.10;96.00
7472;DHT22;3777;48.722;8.110;2023-05-21T13:56:38;26.90;95.90
7472;DHT22;3777;48.722;8.110;2023-05-21T13:59:05;27.00;96.30
7472;DHT22;3777;48.722;8.110;2023-05-21T14:01:32;27.10;96.80
7472;DHT22;3777;48.722;8.110;2023-05-21T14:04:00;27.10;96.80
7472;DHT22;3777;48.722;8.110;2023-05-21T14:06:30;27.10;96.40
7472;DHT22;3777;48.722;8.110;2023-05-21T14:08:57;27.20;97.00
7472;DHT22;3777;48.722;8.110;2023-05-21T14:11:25;27.20;96.80
7472;DHT22;3777;48.722;8.110;2023-05-21T14:13:52;27.20;96.10
7472;DHT22;3777;48.722;8.110;2023-05-21T14:16:19;27.20;96.10
7472;DHT22;3777;48.722;8.110;2023-05-21T14:18:49;27.20;95.70
7472;DHT22;3777;48.722;8.110;2023-05-21T14:21:18;27.10;96.50
7472;DHT22;3777;48.722;8.110;2023-05-21T14:23:45;27.20;97.30
7472;DHT22;3777;48.722;8.110;2023-05-21T14:26:13;27.30;96.60
7472;DHT22;3777;48.722;8.110;2023-05-21T14:28:40;27.40;96.60
7472;DHT22;3777;48.722;8.110;2023-05-21T14:31:07;27.40;96.60
7472;DHT22;3777;48.722;8.110;2023-05-21T14:33:35;27.40;96.50
7472;DHT22;3777;48.722;8.110;2023-05-21T14:36:03;27.40;96.00
7472;DHT22;3777;48.722;8.110;2023-05-21T14:38:31;27.40;95.60
7472;DHT22;3777;48.722;8.110;2023-05-21T14:40:58;27.40;96.00
7472;DHT22;3777;48.722;8.110;2023-05-21T14:43:25;27.30;96.50
7472;DHT22;3777;48.722;8.110;2023-05-21T14:45:52;27.20;96.50
7472;DHT22;3777;48.722;8.110;2023-05-21T14:48:19;27.20;96.50
7472;DHT22;3777;48.722;8.110;2023-05-21T14:50:48;27.20;96.30
7472;DHT22;3777;48.722;8.110;2023-05-21T14:53:16;26.90;96.40
7472;DHT22;3777;48.722;8.110;2023-05-21T14:55:45;26.80;96.90
7472;DHT22;3777;48.722;8.110;2023-05-21T14:58:12;26.70;96.50
7472;DHT22;3777;48.722;8.110;2023-05-21T15:00:39;26.60;97.20
7472;DHT22;3777;48.722;8.110;2023-05-21T15:03:06;26.60;98.10
7472;DHT22;3777;48.722;8.110;2023-05-21T15:05:33;26.60;97.10
7472;DHT22;3777;48.722;8.110;2023-05-21T15:08:00;26.60;97.60
7472;DHT22;3777;48.722;8.110;2023-05-21T15:10:28;26.60;97.60
7472;DHT22;3777;48.722;8.110;2023-05-21T15:12:56;26.70;96.90
7472;DHT22;3777;48.722;8.110;2023-05-21T15:15:23;26.80;97.30
7472;DHT22;3777;48.722;8.110;2023-05-21T15:17:50;26.70;97.40
7472;DHT22;3777;48.722;8.110;2023-05-21T15:20:17;26.80;97.40
7472;DHT22;3777;48.722;8.110;2023-05-21T15:22:45;26.70;97.20
7472;DHT22;3777;48.722;8.110;2023-05-21T15:25:12;26.80;97.60
7472;DHT22;3777;48.722;8.110;2023-05-21T15:27:39;26.90;97.80
7472;DHT22;3777;48.722;8.110;2023-05-21T15:30:08;27.00;97.20
7472;DHT22;3777;48.722;8.110;2023-05-21T15:32:35;27.10;97.40
7472;DHT22;3777;48.722;8.110;2023-05-21T15:35:06;27.10;96.90
7472;DHT22;3777;48.722;8.110;2023-05-21T15:37:33;27.20;97.00
7472;DHT22;3777;48.722;8.110;2023-05-21T15:40:00;27.10;96.60
7472;DHT22;3777;48.722;8.110;2023-05-21T15:42:27;27.10;96.90
7472;DHT22;3777;48.722;8.110;2023-05-21T15:44:56;27.20;96.40
7472;DHT22;3777;48.722;8.110;2023-05-21T15:47:24;27.20;96.50
7472;DHT22;3777;48.722;8.110;2023-05-21T15:49:51;27.20;96.70
7472;DHT22;3777;48.722;8.110;2023-05-21T15:52:18;27.20;96.60
7472;DHT22;3777;48.722;8.110;2023-05-21T15:54:45;27.10;96.60
7472;DHT22;3777;48.722;8.110;2023-05-21T15:57:12;27.10;96.90
7472;DHT22;3777;48.722;8.110;2023-05-21T15:59:39;27.20;96.50
7472;DHT22;3777;48.722;8.110;2023-05-21T16:02:06;27.30;96.10
7472;DHT22;3777;48.722;8.110;2023-05-21T16:04:35;27.30;96.10
7472;DHT22;3777;48.722;8.110;2023-05-21T16:07:02;27.30;96.60
7472;DHT22;3777;48.722;8.110;2023-05-21T16:09:29;27.20;96.30